Terminal Aerodrome Forecast
Issued by NWS

Home | Current Version | Previous Version | Text Only | Print | Product List | Glossary On
Versions: 1 2 3 4 5 6 7 8 9 10 11 12 13 14 15 16 17 18 19 20 21 22 23 24 25 26 27 28
000
FTUS43 KPAH 300500
TAFOWB
TAF
KOWB 300520Z 3006/3106 17005KT P6SM BKN120
     FM301100 18004KT P6SM VCSH BKN050
     FM301600 20008KT 4SM SHRA BR OVC040
     FM310000 18006KT P6SM BKN040=

USA.gov is the U.S. government's official web portal to all federal, state and local government web resources and services.